Time;durP1;ratioP1;P1;durP2;ratioP2;P2;SDS_P1;SDS_P2;PMS_P1;PMS_P2;Temp;Humidity;BMP_temperature;BMP_pressure;BME280_temperature;BME280_humidity;BME280_pressure;Samples;Min_cycle;Max_cycle;Signal;HPM_P1;HPM_P2
2023/05/30 00:01:54;;;;;;;15.48;4.40;;;;;;;;;;5055519;28;20045;-71
2023/05/30 00:04:21;;;;;;;14.13;4.43;;;;;;;;;;5037469;28;20521;-71
2023/05/30 00:06:47;;;;;;;17.08;4.40;;;;;;;;;;5055332;28;20136;-72
2023/05/30 00:09:13;;;;;;;9.73;4.40;;;;;;;;;;5037499;28;20045;-71
2023/05/30 00:11:39;;;;;;;13.95;4.20;;;;;;;;;;5055330;28;20503;-72
2023/05/30 00:14:05;;;;;;;14.20;4.13;;;;;;;;;;5037745;28;20084;-72
2023/05/30 00:16:34;;;;;;;11.05;4.35;;;;;;;;;;5055746;28;20171;-72
2023/05/30 00:19:00;;;;;;;11.45;4.07;;;;;;;;;;5035862;28;20387;-72
2023/05/30 00:21:28;;;;;;;16.40;4.07;;;;;;;;;;5035459;28;20392;-72
2023/05/30 00:23:54;;;;;;;13.73;4.28;;;;;;;;;;5054116;28;20049;-72
2023/05/30 00:26:20;;;;;;;12.65;3.75;;;;;;;;;;5055027;28;20041;-72
2023/05/30 00:28:46;;;;;;;14.00;3.55;;;;;;;;;;5034244;28;20041;-72
2023/05/30 00:31:12;;;;;;;13.90;3.70;;;;;;;;;;5035731;28;20042;-72
2023/05/30 00:33:38;;;;;;;11.43;3.80;;;;;;;;;;5036937;28;20052;-72
2023/05/30 00:36:05;;;;;;;10.40;3.53;;;;;;;;;;5042807;28;20049;-72
2023/05/30 00:38:31;;;;;;;13.65;4.32;;;;;;;;;;5053714;28;20143;-72
2023/05/30 00:40:57;;;;;;;14.05;3.90;;;;;;;;;;5036811;28;20482;-73
2023/05/30 00:43:23;;;;;;;15.85;3.88;;;;;;;;;;5054353;28;20143;-72
2023/05/30 00:45:53;;;;;;;11.23;4.03;;;;;;;;;;5054696;28;20529;-72
2023/05/30 00:48:20;;;;;;;11.02;3.65;;;;;;;;;;5036250;28;20409;-72
2023/05/30 00:50:46;;;;;;;12.13;3.75;;;;;;;;;;5054269;28;20151;-72
2023/05/30 00:53:12;;;;;;;10.95;3.63;;;;;;;;;;5054455;28;20048;-72
2023/05/30 00:55:38;;;;;;;16.30;3.78;;;;;;;;;;5035582;28;20044;-72
2023/05/30 00:58:04;;;;;;;12.15;3.83;;;;;;;;;;5034111;28;20485;-72
2023/05/30 01:00:30;;;;;;;10.82;3.50;;;;;;;;;;5052812;28;20045;-72
2023/05/30 01:02:59;;;;;;;11.77;3.50;;;;;;;;;;5035795;28;20051;-71
2023/05/30 01:05:26;;;;;;;13.85;3.58;;;;;;;;;;5036517;28;20394;-71
2023/05/30 01:07:53;;;;;;;12.77;3.53;;;;;;;;;;5032459;28;20065;-71
2023/05/30 01:10:20;;;;;;;11.00;3.40;;;;;;;;;;5034206;28;20045;-72
2023/05/30 01:13:04;;;;;;;9.60;3.47;;;;;;;;;;5034033;28;20068;-71
2023/05/30 01:15:32;;;;;;;10.43;3.45;;;;;;;;;;5066564;28;20139;-71
2023/05/30 01:18:01;;;;;;;13.43;4.05;;;;;;;;;;5033528;28;20057;-72
2023/05/30 01:20:31;;;;;;;15.48;3.97;;;;;;;;;;5033917;28;20060;-71
2023/05/30 01:23:03;;;;;;;9.13;3.75;;;;;;;;;;5029394;28;20045;-72
2023/05/30 01:25:35;;;;;;;12.65;4.18;;;;;;;;;;5026220;28;20042;-71
2023/05/30 01:28:01;;;;;;;12.02;3.70;;;;;;;;;;5058533;28;20446;-71
2023/05/30 01:30:28;;;;;;;12.10;3.92;;;;;;;;;;5016007;28;20049;-71
2023/05/30 01:32:54;;;;;;;15.27;3.72;;;;;;;;;;5065207;28;20068;-71
2023/05/30 01:35:23;;;;;;;11.75;3.88;;;;;;;;;;5033394;28;20045;-71
2023/05/30 01:37:50;;;;;;;13.57;4.10;;;;;;;;;;5033693;28;20478;-71
2023/05/30 01:40:20;;;;;;;13.52;3.70;;;;;;;;;;5033593;28;20052;-71
2023/05/30 01:42:47;;;;;;;12.13;3.88;;;;;;;;;;5033522;28;20041;-71
2023/05/30 01:45:18;;;;;;;15.13;4.50;;;;;;;;;;5031865;28;20033;-71
2023/05/30 01:47:50;;;;;;;10.82;3.65;;;;;;;;;;5048196;28;20095;-71
2023/05/30 01:50:47;;;;;;;13.50;4.47;;;;;;;;;;5032090;28;20107;-71
2023/05/30 01:53:17;;;;;;;12.77;4.22;;;;;;;;;;5020897;28;20061;-71
2023/05/30 01:55:44;;;;;;;14.40;4.35;;;;;;;;;;5032361;28;20091;-71
2023/05/30 01:58:12;;;;;;;12.98;4.38;;;;;;;;;;5015342;28;20159;-71
2023/05/30 02:00:38;;;;;;;15.27;4.28;;;;;;;;;;5032001;28;20052;-71
2023/05/30 02:03:04;;;;;;;12.90;4.07;;;;;;;;;;5048357;28;20475;-72
2023/05/30 02:05:30;;;;;;;15.90;4.30;;;;;;;;;;5031992;28;20064;-72
2023/05/30 02:07:57;;;;;;;13.35;4.25;;;;;;;;;;5051643;28;20056;-72
2023/05/30 02:10:23;;;;;;;13.45;4.05;;;;;;;;;;5053160;28;20051;-72
2023/05/30 02:12:49;;;;;;;14.50;4.50;;;;;;;;;;5034812;28;20438;-72
2023/05/30 02:15:15;;;;;;;12.15;4.43;;;;;;;;;;5052681;28;20143;-72
2023/05/30 02:17:41;;;;;;;19.50;4.40;;;;;;;;;;5048892;28;20049;-73
2023/05/30 02:20:08;;;;;;;14.13;4.00;;;;;;;;;;5052750;28;20055;-72
2023/05/30 02:22:34;;;;;;;13.38;4.22;;;;;;;;;;5031063;28;20047;-72
2023/05/30 02:25:00;;;;;;;15.80;4.32;;;;;;;;;;5053157;28;20049;-72
2023/05/30 02:27:26;;;;;;;14.35;4.32;;;;;;;;;;5034210;28;20044;-72
2023/05/30 02:29:52;;;;;;;14.43;4.43;;;;;;;;;;5051915;28;20037;-72
2023/05/30 02:32:18;;;;;;;15.00;4.40;;;;;;;;;;5035090;28;20053;-72
2023/05/30 02:34:44;;;;;;;17.63;4.55;;;;;;;;;;5051926;28;20045;-72
2023/05/30 02:37:10;;;;;;;16.65;4.47;;;;;;;;;;5052960;28;20047;-72
2023/05/30 02:39:36;;;;;;;11.07;4.05;;;;;;;;;;5052668;28;20397;-71
2023/05/30 02:42:02;;;;;;;15.50;4.35;;;;;;;;;;5052848;28;20045;-72
2023/05/30 02:44:28;;;;;;;11.63;4.45;;;;;;;;;;5052511;28;20045;-72
2023/05/30 02:46:54;;;;;;;14.13;4.78;;;;;;;;;;5052353;28;20327;-72
2023/05/30 02:49:20;;;;;;;16.65;4.32;;;;;;;;;;5052648;28;20402;-72
2023/05/30 02:51:46;;;;;;;15.90;4.05;;;;;;;;;;5052968;28;20049;-72
2023/05/30 02:54:12;;;;;;;18.85;4.50;;;;;;;;;;5052581;28;20052;-72
2023/05/30 02:56:38;;;;;;;13.68;4.45;;;;;;;;;;5052728;28;20052;-72
2023/05/30 02:59:04;;;;;;;16.05;4.45;;;;;;;;;;5033701;28;20052;-72
2023/05/30 03:01:31;;;;;;;15.63;4.50;;;;;;;;;;5052359;28;20045;-71
2023/05/30 03:03:57;;;;;;;15.77;4.70;;;;;;;;;;5033827;28;20049;-72
2023/05/30 03:06:24;;;;;;;13.23;4.28;;;;;;;;;;5034035;28;20049;-72
2023/05/30 03:08:57;;;;;;;14.73;4.50;;;;;;;;;;5051205;28;20056;-72
2023/05/30 03:11:23;;;;;;;21.42;4.63;;;;;;;;;;5031414;28;20063;-72
2023/05/30 03:13:50;;;;;;;12.48;4.25;;;;;;;;;;5051420;28;20084;-72
2023/05/30 03:16:16;;;;;;;16.50;5.03;;;;;;;;;;5055751;28;20049;-71
2023/05/30 03:18:42;;;;;;;13.85;4.50;;;;;;;;;;5041877;28;20048;-72
2023/05/30 03:21:10;;;;;;;12.55;3.95;;;;;;;;;;5051810;28;20037;-72
2023/05/30 03:23:36;;;;;;;14.30;4.10;;;;;;;;;;5066243;28;20044;-72
2023/05/30 03:26:06;;;;;;;15.43;4.60;;;;;;;;;;5052139;28;20090;-72
2023/05/30 03:28:32;;;;;;;14.40;4.10;;;;;;;;;;5049125;28;20508;-72
2023/05/30 03:30:59;;;;;;;13.43;4.78;;;;;;;;;;5051997;28;20036;-72
2023/05/30 03:33:28;;;;;;;14.48;4.53;;;;;;;;;;5034639;28;20155;-72
2023/05/30 03:35:54;;;;;;;17.73;4.32;;;;;;;;;;5053270;28;20041;-72
2023/05/30 03:38:21;;;;;;;16.65;4.53;;;;;;;;;;5055268;28;20079;-72
2023/05/30 03:40:47;;;;;;;18.33;4.70;;;;;;;;;;5034771;28;20040;-72
2023/05/30 03:43:13;;;;;;;16.58;4.68;;;;;;;;;;5052086;28;20095;-72
2023/05/30 03:45:39;;;;;;;15.23;4.30;;;;;;;;;;5034183;28;20432;-72
2023/05/30 03:48:05;;;;;;;16.23;4.50;;;;;;;;;;5033319;28;20405;-72
2023/05/30 03:50:31;;;;;;;15.18;4.40;;;;;;;;;;5016979;28;20411;-72
2023/05/30 03:52:57;;;;;;;16.80;4.70;;;;;;;;;;5032355;28;20081;-72
2023/05/30 03:55:23;;;;;;;13.43;4.68;;;;;;;;;;5051676;28;20044;-72
2023/05/30 03:57:49;;;;;;;15.65;4.63;;;;;;;;;;5051931;28;20044;-71
2023/05/30 04:00:16;;;;;;;14.07;4.40;;;;;;;;;;5051722;28;20124;-72
2023/05/30 04:02:42;;;;;;;12.90;4.55;;;;;;;;;;5051089;28;20140;-72
2023/05/30 04:05:09;;;;;;;15.65;4.70;;;;;;;;;;5051872;28;20072;-72
2023/05/30 04:07:38;;;;;;;15.50;4.20;;;;;;;;;;5033658;28;20092;-71
2023/05/30 04:10:04;;;;;;;16.52;4.47;;;;;;;;;;5051824;28;20109;-72
2023/05/30 04:12:30;;;;;;;13.35;4.20;;;;;;;;;;5051744;28;20052;-72
2023/05/30 04:14:56;;;;;;;17.05;4.30;;;;;;;;;;5034109;28;20045;-72
2023/05/30 04:17:22;;;;;;;13.02;4.07;;;;;;;;;;5051395;28;20045;-71
2023/05/30 04:19:48;;;;;;;14.20;3.55;;;;;;;;;;5033821;28;20477;-72
2023/05/30 04:22:14;;;;;;;14.70;4.30;;;;;;;;;;5067350;28;20067;-72
2023/05/30 04:24:40;;;;;;;14.02;4.30;;;;;;;;;;5032046;28;20052;-72
2023/05/30 04:27:06;;;;;;;13.13;4.40;;;;;;;;;;5030582;28;20053;-72
2023/05/30 04:29:33;;;;;;;16.77;4.35;;;;;;;;;;5013880;28;20053;-72
2023/05/30 04:31:59;;;;;;;13.25;4.65;;;;;;;;;;5017185;28;20057;-72
2023/05/30 04:34:25;;;;;;;16.85;4.57;;;;;;;;;;5035166;28;20441;-72
2023/05/30 04:36:53;;;;;;;23.48;5.03;;;;;;;;;;5033883;28;20052;-72
2023/05/30 04:39:19;;;;;;;13.40;4.18;;;;;;;;;;5052674;28;20049;-72
2023/05/30 04:41:45;;;;;;;18.42;4.53;;;;;;;;;;5054640;28;20053;-72
2023/05/30 04:44:11;;;;;;;16.42;4.95;;;;;;;;;;5054970;28;20600;-72
2023/05/30 04:46:37;;;;;;;17.40;4.18;;;;;;;;;;5054582;28;20049;-72
2023/05/30 04:49:03;;;;;;;17.42;4.70;;;;;;;;;;5054494;28;20414;-72
2023/05/30 04:51:30;;;;;;;14.55;4.55;;;;;;;;;;5054627;28;20041;-72
2023/05/30 04:53:56;;;;;;;17.02;4.38;;;;;;;;;;5036688;28;20041;-72
2023/05/30 04:56:22;;;;;;;15.57;4.30;;;;;;;;;;5054399;28;20048;-72
2023/05/30 04:58:48;;;;;;;19.45;4.63;;;;;;;;;;5054199;28;20139;-73
2023/05/30 05:01:15;;;;;;;12.15;3.95;;;;;;;;;;5053895;28;20470;-72
2023/05/30 05:03:41;;;;;;;17.30;4.13;;;;;;;;;;5054131;28;20116;-71
2023/05/30 05:06:07;;;;;;;11.68;3.88;;;;;;;;;;5036193;28;20373;-72
2023/05/30 05:08:35;;;;;;;12.68;3.85;;;;;;;;;;5054084;28;20486;-73
2023/05/30 05:11:02;;;;;;;14.88;3.90;;;;;;;;;;5054150;28;20064;-72
2023/05/30 05:13:28;;;;;;;13.48;3.65;;;;;;;;;;5053921;28;20087;-72
2023/05/30 05:15:55;;;;;;;10.10;3.30;;;;;;;;;;5054138;28;20112;-72
2023/05/30 05:18:21;;;;;;;15.48;3.80;;;;;;;;;;5055490;28;20120;-72
2023/05/30 05:20:47;;;;;;;13.27;3.95;;;;;;;;;;5023233;28;20048;-71
2023/05/30 05:23:13;;;;;;;8.93;3.47;;;;;;;;;;5035702;28;20103;-72
2023/05/30 05:25:39;;;;;;;12.07;3.80;;;;;;;;;;5068152;28;20467;-72
2023/05/30 05:28:06;;;;;;;9.35;3.47;;;;;;;;;;5052463;28;20057;-72
2023/05/30 05:30:32;;;;;;;11.20;3.60;;;;;;;;;;5053601;28;20087;-72
2023/05/30 05:32:58;;;;;;;11.10;3.40;;;;;;;;;;5053512;28;20049;-72
2023/05/30 05:35:24;;;;;;;11.95;3.70;;;;;;;;;;5036230;28;20394;-72
2023/05/30 05:37:50;;;;;;;12.30;3.60;;;;;;;;;;5052632;28;20045;-72
2023/05/30 05:40:16;;;;;;;10.52;3.20;;;;;;;;;;5053334;28;20106;-72
2023/05/30 05:42:43;;;;;;;10.00;3.35;;;;;;;;;;5053735;28;20052;-72
2023/05/30 05:45:09;;;;;;;12.77;3.83;;;;;;;;;;5053405;28;20049;-72
2023/05/30 05:47:35;;;;;;;10.13;4.03;;;;;;;;;;5053413;28;20048;-72
2023/05/30 05:50:01;;;;;;;11.50;3.70;;;;;;;;;;5053818;28;20045;-71
2023/05/30 05:52:27;;;;;;;11.35;3.25;;;;;;;;;;5053296;28;20076;-71
2023/05/30 05:54:54;;;;;;;14.52;3.70;;;;;;;;;;5053361;28;20136;-71
2023/05/30 05:57:20;;;;;;;14.85;4.00;;;;;;;;;;5035583;28;20048;-71
2023/05/30 05:59:46;;;;;;;13.88;3.58;;;;;;;;;;5035398;28;20044;-71
2023/05/30 06:02:12;;;;;;;11.50;3.35;;;;;;;;;;5035264;28;20398;-72
2023/05/30 06:04:38;;;;;;;11.48;3.55;;;;;;;;;;5052709;28;20355;-71
2023/05/30 06:07:04;;;;;;;9.60;3.20;;;;;;;;;;5033891;28;20462;-72
2023/05/30 06:09:31;;;;;;;11.20;3.30;;;;;;;;;;5053294;28;20044;-71
2023/05/30 06:12:01;;;;;;;9.13;3.22;;;;;;;;;;5052863;28;20576;-71
2023/05/30 06:14:27;;;;;;;14.20;3.53;;;;;;;;;;5035510;28;20397;-71
2023/05/30 06:16:54;;;;;;;10.40;3.33;;;;;;;;;;5052934;28;20045;-72
2023/05/30 06:19:20;;;;;;;8.98;3.40;;;;;;;;;;5052997;28;20045;-71
2023/05/30 06:21:46;;;;;;;7.55;3.15;;;;;;;;;;5052844;28;20151;-72
2023/05/30 06:24:12;;;;;;;10.10;2.97;;;;;;;;;;5052245;28;20041;-72
2023/05/30 06:26:38;;;;;;;10.50;3.28;;;;;;;;;;5052222;28;20045;-72
2023/05/30 06:29:04;;;;;;;8.25;2.80;;;;;;;;;;5052918;28;20127;-72
2023/05/30 06:31:30;;;;;;;9.77;3.50;;;;;;;;;;5035055;28;20048;-72
2023/05/30 06:33:56;;;;;;;10.30;3.30;;;;;;;;;;5053092;28;20073;-71
2023/05/30 06:36:22;;;;;;;14.50;3.22;;;;;;;;;;5056371;28;20068;-72
2023/05/30 06:38:51;;;;;;;10.00;3.00;;;;;;;;;;5041701;28;20520;-72
2023/05/30 06:41:17;;;;;;;10.93;2.90;;;;;;;;;;5034658;28;20084;-72
2023/05/30 06:43:43;;;;;;;7.93;2.65;;;;;;;;;;5035306;28;20127;-71
2023/05/30 06:46:09;;;;;;;9.45;2.90;;;;;;;;;;5034835;28;20132;-72
2023/05/30 06:48:35;;;;;;;10.40;3.90;;;;;;;;;;5052405;28;20110;-73
2023/05/30 06:51:01;;;;;;;6.20;3.25;;;;;;;;;;5051854;28;20040;-72
2023/05/30 06:53:27;;;;;;;11.85;3.80;;;;;;;;;;5033343;28;20050;-72
2023/05/30 06:55:53;;;;;;;9.88;3.38;;;;;;;;;;5052626;28;20106;-73
2023/05/30 06:58:19;;;;;;;11.95;3.63;;;;;;;;;;5034288;28;20099;-71
2023/05/30 07:00:46;;;;;;;7.07;3.25;;;;;;;;;;5058637;28;20094;-72
2023/05/30 07:03:12;;;;;;;9.10;2.90;;;;;;;;;;5032532;28;20525;-72
2023/05/30 07:05:38;;;;;;;14.50;3.20;;;;;;;;;;5032727;28;20041;-72
2023/05/30 07:08:04;;;;;;;8.10;3.10;;;;;;;;;;5032515;28;20045;-72
2023/05/30 07:10:31;;;;;;;9.75;3.38;;;;;;;;;;5047939;28;20042;-72
2023/05/30 07:12:57;;;;;;;8.88;2.97;;;;;;;;;;5032509;28;20359;-72
2023/05/30 07:15:23;;;;;;;13.43;3.63;;;;;;;;;;5033269;28;20043;-71
2023/05/30 07:17:49;;;;;;;8.70;2.97;;;;;;;;;;5033596;28;20052;-71
2023/05/30 07:20:20;;;;;;;10.00;2.95;;;;;;;;;;5052245;28;20491;-71
2023/05/30 07:22:46;;;;;;;8.73;2.95;;;;;;;;;;5034370;28;20132;-71
2023/05/30 07:25:12;;;;;;;12.07;2.92;;;;;;;;;;5052614;28;20079;-71
2023/05/30 07:27:38;;;;;;;7.38;2.70;;;;;;;;;;5034207;28;20045;-71
2023/05/30 07:30:05;;;;;;;6.70;2.65;;;;;;;;;;5052132;28;20055;-71
2023/05/30 07:32:31;;;;;;;5.90;2.75;;;;;;;;;;5052016;28;20049;-73
2023/05/30 07:34:57;;;;;;;4.95;2.72;;;;;;;;;;5050879;28;20080;-74
2023/05/30 07:37:23;;;;;;;8.02;2.58;;;;;;;;;;5034234;28;20121;-74
2023/05/30 07:39:49;;;;;;;6.55;2.63;;;;;;;;;;5033950;28;20048;-74
2023/05/30 07:42:15;;;;;;;7.07;2.63;;;;;;;;;;5051407;28;20052;-74
2023/05/30 07:44:41;;;;;;;7.13;2.58;;;;;;;;;;5052086;28;20037;-74
2023/05/30 07:47:07;;;;;;;7.35;2.45;;;;;;;;;;5034006;28;20127;-74
2023/05/30 07:49:33;;;;;;;9.85;2.88;;;;;;;;;;5051978;28;20142;-75
2023/05/30 07:52:00;;;;;;;5.85;2.30;;;;;;;;;;5051562;28;20041;-75
2023/05/30 07:54:26;;;;;;;7.05;2.75;;;;;;;;;;5050488;28;20041;-72
2023/05/30 07:56:52;;;;;;;5.72;2.50;;;;;;;;;;5051185;28;20051;-73
2023/05/30 07:59:18;;;;;;;5.70;2.50;;;;;;;;;;5050072;28;20500;-73
2023/05/30 08:01:45;;;;;;;5.68;2.50;;;;;;;;;;5051343;28;20056;-73
2023/05/30 08:04:11;;;;;;;8.52;2.28;;;;;;;;;;5051758;28;20114;-72
2023/05/30 08:06:37;;;;;;;5.97;2.30;;;;;;;;;;5054909;28;20494;-72
2023/05/30 08:09:04;;;;;;;6.20;2.50;;;;;;;;;;5055533;28;20059;-72
2023/05/30 08:11:30;;;;;;;6.97;2.60;;;;;;;;;;5055518;28;20052;-73
2023/05/30 08:13:56;;;;;;;6.15;2.53;;;;;;;;;;5037882;28;20130;-72
2023/05/30 08:16:23;;;;;;;5.97;2.80;;;;;;;;;;5070873;28;20053;-72
2023/05/30 08:18:49;;;;;;;6.57;2.70;;;;;;;;;;5052484;28;20497;-72
2023/05/30 08:21:15;;;;;;;9.02;2.75;;;;;;;;;;5035380;28;20068;-72
2023/05/30 08:23:42;;;;;;;4.72;2.00;;;;;;;;;;5017683;28;20044;-72
2023/05/30 08:26:08;;;;;;;4.88;2.03;;;;;;;;;;5035545;28;20552;-72
2023/05/30 08:28:35;;;;;;;5.55;2.22;;;;;;;;;;5001115;28;20077;-72
2023/05/30 08:31:01;;;;;;;6.25;1.90;;;;;;;;;;5034978;28;20084;-72
2023/05/30 08:33:27;;;;;;;6.00;1.92;;;;;;;;;;5035198;28;20046;-72
2023/05/30 08:35:53;;;;;;;3.90;1.58;;;;;;;;;;5035363;28;20125;-72
2023/05/30 08:38:19;;;;;;;4.45;1.77;;;;;;;;;;5033558;28;20041;-72
2023/05/30 08:40:46;;;;;;;3.92;1.80;;;;;;;;;;5017304;28;20077;-72
2023/05/30 08:43:12;;;;;;;4.30;1.90;;;;;;;;;;5034863;28;20046;-72
2023/05/30 08:45:38;;;;;;;2.70;1.50;;;;;;;;;;5035445;28;20443;-73
2023/05/30 08:48:06;;;;;;;2.30;1.60;;;;;;;;;;5033027;28;20045;-73
2023/05/30 08:50:34;;;;;;;4.57;1.80;;;;;;;;;;5032776;28;20053;-73
2023/05/30 08:53:09;;;;;;;2.28;1.55;;;;;;;;;;5033030;28;20135;-72
2023/05/30 08:55:35;;;;;;;;;;;;;;;;;;5015605;28;20083;-73
2023/05/30 08:58:08;;;;;;;2.75;1.20;;;;;;;;;;5032825;28;19960;-72
2023/05/30 09:00:35;;;;;;;2.47;1.48;;;;;;;;;;5032894;28;20128;-73
2023/05/30 09:03:05;;;;;;;2.42;1.30;;;;;;;;;;5033912;28;20099;-72
2023/05/30 09:05:31;;;;;;;2.97;1.40;;;;;;;;;;5046885;28;20044;-73
2023/05/30 09:07:57;;;;;;;4.75;1.35;;;;;;;;;;5052468;28;20075;-73
2023/05/30 09:10:24;;;;;;;3.92;1.40;;;;;;;;;;5034184;28;20128;-74
2023/05/30 09:12:50;;;;;;;2.78;1.20;;;;;;;;;;5051712;28;20106;-75
2023/05/30 09:15:16;;;;;;;2.10;1.40;;;;;;;;;;5017516;28;20541;-73
2023/05/30 09:17:42;;;;;;;3.50;1.40;;;;;;;;;;5041889;28;20050;-73
2023/05/30 09:20:09;;;;;;;2.25;1.30;;;;;;;;;;5032253;28;20114;-72
2023/05/30 09:22:35;;;;;;;2.38;1.38;;;;;;;;;;5051275;28;20059;-72
2023/05/30 09:25:02;;;;;;;3.63;1.50;;;;;;;;;;5032718;28;20224;-72
2023/05/30 09:27:30;;;;;;;2.58;1.17;;;;;;;;;;5031071;28;20267;-73
2023/05/30 09:29:56;;;;;;;1.50;1.10;;;;;;;;;;5030890;28;20494;-72
2023/05/30 09:32:28;;;;;;;1.98;1.30;;;;;;;;;;5026697;28;20413;-71
2023/05/30 09:34:55;;;;;;;3.70;1.50;;;;;;;;;;5036590;28;20095;-71
2023/05/30 09:37:22;;;;;;;1.73;1.30;;;;;;;;;;5053861;28;20110;-71
2023/05/30 09:40:17;;;;;;;2.78;1.55;;;;;;;;;;5054086;28;20045;-71
2023/05/30 09:42:44;;;;;;;3.00;1.67;;;;;;;;;;5003416;28;20493;-71
2023/05/30 09:45:11;;;;;;;2.15;1.45;;;;;;;;;;5056993;28;20049;-72
2023/05/30 09:47:47;;;;;;;2.08;1.30;;;;;;;;;;5058058;28;20107;-72
2023/05/30 09:50:17;;;;;;;2.97;1.55;;;;;;;;;;5053825;28;20385;-72
2023/05/30 09:52:44;;;;;;;2.38;1.50;;;;;;;;;;5054466;28;20041;-72
2023/05/30 09:55:13;;;;;;;4.90;1.55;;;;;;;;;;5053908;28;20102;-71
2023/05/30 09:57:40;;;;;;;2.53;1.35;;;;;;;;;;5053425;28;20049;-71
2023/05/30 10:00:09;;;;;;;2.13;1.30;;;;;;;;;;5035325;28;20096;-73
2023/05/30 10:02:35;;;;;;;5.38;1.50;;;;;;;;;;5053549;28;20362;-73
2023/05/30 10:05:01;;;;;;;3.55;1.42;;;;;;;;;;5053719;28;20045;-74
2023/05/30 10:07:28;;;;;;;3.17;1.70;;;;;;;;;;5053112;28;20060;-74
2023/05/30 10:09:55;;;;;;;2.50;1.58;;;;;;;;;;5053232;28;20067;-74
2023/05/30 10:12:21;;;;;;;3.20;1.42;;;;;;;;;;5053214;28;20045;-74
2023/05/30 10:14:47;;;;;;;2.92;1.60;;;;;;;;;;5035230;28;20070;-74
2023/05/30 10:17:16;;;;;;;4.25;1.55;;;;;;;;;;5052637;28;20528;-74
2023/05/30 10:19:50;;;;;;;3.33;1.40;;;;;;;;;;5033419;28;20061;-73
2023/05/30 10:22:17;;;;;;;3.55;1.23;;;;;;;;;;5049740;28;20292;-71
2023/05/30 10:24:43;;;;;;;4.75;1.50;;;;;;;;;;5052242;28;20402;-72
2023/05/30 10:27:11;;;;;;;3.05;1.40;;;;;;;;;;5052836;28;20048;-73
2023/05/30 10:29:47;;;;;;;3.05;1.58;;;;;;;;;;5034724;28;20057;-72
2023/05/30 10:32:19;;;;;;;3.65;1.38;;;;;;;;;;5052788;28;20076;-74
2023/05/30 10:35:06;;;;;;;3.75;1.30;;;;;;;;;;5052715;28;20056;-72
2023/05/30 10:37:32;;;;;;;3.33;1.48;;;;;;;;;;5051049;28;20048;-72
2023/05/30 10:39:58;;;;;;;2.90;1.63;;;;;;;;;;5033295;28;20047;-72
2023/05/30 10:42:35;;;;;;;3.03;1.60;;;;;;;;;;5034876;28;20044;-72
2023/05/30 10:45:21;;;;;;;2.88;1.63;;;;;;;;;;5052302;28;20125;-74
2023/05/30 10:47:58;;;;;;;3.53;1.80;;;;;;;;;;5051599;28;20470;-73
2023/05/30 10:50:27;;;;;;;3.80;1.80;;;;;;;;;;5053150;28;20044;-73
2023/05/30 10:52:57;;;;;;;3.95;1.60;;;;;;;;;;5052676;28;20108;-71
2023/05/30 10:55:23;;;;;;;4.72;1.60;;;;;;;;;;5034934;28;20091;-71
2023/05/30 10:57:49;;;;;;;5.97;1.60;;;;;;;;;;5052397;28;20049;-72
2023/05/30 11:00:27;;;;;;;2.95;1.50;;;;;;;;;;5034640;28;20052;-71
2023/05/30 11:02:54;;;;;;;3.25;1.40;;;;;;;;;;5052319;28;20514;-72
2023/05/30 11:05:30;;;;;;;3.22;1.60;;;;;;;;;;5018367;28;20049;-72
2023/05/30 11:07:57;;;;;;;3.60;1.40;;;;;;;;;;5052025;28;20065;-72
2023/05/30 11:10:27;;;;;;;3.88;1.75;;;;;;;;;;5052649;28;20052;-73
2023/05/30 11:12:53;;;;;;;3.10;1.60;;;;;;;;;;5052203;28;20447;-72
2023/05/30 11:15:31;;;;;;;2.42;1.58;;;;;;;;;;5018305;28;20460;-72
2023/05/30 11:17:57;;;;;;;3.63;1.80;;;;;;;;;;5041046;28;20060;-72
2023/05/30 11:20:23;;;;;;;2.53;1.63;;;;;;;;;;5031163;28;20129;-71
2023/05/30 11:23:01;;;;;;;2.40;1.67;;;;;;;;;;5031845;28;20049;-73
2023/05/30 11:25:28;;;;;;;5.40;1.90;;;;;;;;;;5048029;28;20056;-72
2023/05/30 11:28:04;;;;;;;3.47;1.70;;;;;;;;;;5014136;28;20132;-72
2023/05/30 11:30:35;;;;;;;3.53;1.73;;;;;;;;;;5032229;28;20045;-71
2023/05/30 11:33:01;;;;;;;6.95;2.20;;;;;;;;;;5047706;28;20045;-72
2023/05/30 11:35:27;;;;;;;2.95;1.70;;;;;;;;;;5032448;28;20049;-72
2023/05/30 11:37:57;;;;;;;2.17;1.60;;;;;;;;;;5032019;28;20388;-72
2023/05/30 11:40:23;;;;;;;4.10;1.98;;;;;;;;;;5034884;28;20159;-72
2023/05/30 11:42:53;;;;;;;2.35;1.52;;;;;;;;;;5049860;28;20038;-71
2023/05/30 11:45:26;;;;;;;4.15;1.98;;;;;;;;;;5036280;28;20045;-71
2023/05/30 11:47:52;;;;;;;1.92;1.50;;;;;;;;;;5051205;28;20085;-72
2023/05/30 11:50:21;;;;;;;2.97;1.60;;;;;;;;;;5036030;28;20037;-72
2023/05/30 11:52:47;;;;;;;2.05;1.58;;;;;;;;;;5035966;28;20375;-72
2023/05/30 11:55:14;;;;;;;3.63;1.70;;;;;;;;;;5051324;28;20063;-73
2023/05/30 11:57:40;;;;;;;2.75;1.77;;;;;;;;;;5036021;28;20060;-72
2023/05/30 12:00:08;;;;;;;3.47;1.70;;;;;;;;;;5035847;28;20045;-72
2023/05/30 12:02:35;;;;;;;3.38;1.75;;;;;;;;;;5051432;28;20414;-73
2023/05/30 12:05:04;;;;;;;1.83;1.45;;;;;;;;;;5035786;28;20152;-72
2023/05/30 12:07:31;;;;;;;3.83;1.60;;;;;;;;;;5035544;28;20118;-72
2023/05/30 12:09:58;;;;;;;4.35;1.70;;;;;;;;;;5035421;28;20426;-72
2023/05/30 12:12:24;;;;;;;4.05;1.55;;;;;;;;;;5051144;28;20049;-72
2023/05/30 12:14:50;;;;;;;2.10;1.40;;;;;;;;;;5035790;28;20049;-72
2023/05/30 12:17:22;;;;;;;3.30;2.00;;;;;;;;;;5039582;28;20056;-72
2023/05/30 12:19:55;;;;;;;3.28;1.60;;;;;;;;;;5053410;28;20049;-72
2023/05/30 12:22:22;;;;;;;3.70;1.80;;;;;;;;;;5055295;28;20049;-73
2023/05/30 12:24:49;;;;;;;3.58;1.45;;;;;;;;;;5055814;28;20033;-72
2023/05/30 12:27:22;;;;;;;1.75;1.40;;;;;;;;;;5055003;28;20141;-70
2023/05/30 12:29:49;;;;;;;4.40;1.40;;;;;;;;;;5054915;28;20045;-72
2023/05/30 12:32:22;;;;;;;3.40;1.50;;;;;;;;;;5055163;28;20053;-71
2023/05/30 12:34:48;;;;;;;2.45;1.58;;;;;;;;;;5055258;28;20048;-72
2023/05/30 12:37:15;;;;;;;3.17;1.50;;;;;;;;;;5055083;28;20045;-73
2023/05/30 12:40:00;;;;;;;4.50;1.70;;;;;;;;;;5055360;28;20045;-72
2023/05/30 12:42:27;;;;;;;6.78;1.77;;;;;;;;;;5055486;28;20049;-72
2023/05/30 12:45:12;;;;;;;1.95;1.40;;;;;;;;;;5070596;28;20045;-72
2023/05/30 12:47:38;;;;;;;2.83;1.58;;;;;;;;;;5054962;28;20481;-71
2023/05/30 12:50:04;;;;;;;4.50;1.70;;;;;;;;;;5055201;28;20210;-71
2023/05/30 12:52:30;;;;;;;3.05;1.50;;;;;;;;;;5054052;28;20040;-72
2023/05/30 12:54:56;;;;;;;3.35;1.50;;;;;;;;;;5055068;28;20045;-72
2023/05/30 12:57:25;;;;;;;4.80;1.70;;;;;;;;;;5053808;28;20416;-72
2023/05/30 12:59:51;;;;;;;1.92;1.50;;;;;;;;;;5054720;28;20128;-72
2023/05/30 13:02:20;;;;;;;3.30;1.60;;;;;;;;;;5036674;28;20515;-72
2023/05/30 13:04:46;;;;;;;3.72;1.55;;;;;;;;;;5054718;28;20053;-72
2023/05/30 13:07:12;;;;;;;4.90;1.90;;;;;;;;;;5054384;28;20053;-72
2023/05/30 13:09:39;;;;;;;3.45;1.50;;;;;;;;;;5054521;28;20041;-72
2023/05/30 13:12:08;;;;;;;6.68;2.10;;;;;;;;;;5054594;28;20044;-71
2023/05/30 13:14:34;;;;;;;3.17;1.70;;;;;;;;;;5054378;28;20047;-71
2023/05/30 13:17:00;;;;;;;12.10;2.33;;;;;;;;;;5054184;28;20505;-72
2023/05/30 13:19:26;;;;;;;4.00;1.70;;;;;;;;;;5054581;28;20033;-73
2023/05/30 13:21:52;;;;;;;4.40;1.90;;;;;;;;;;5054597;28;20045;-72
2023/05/30 13:24:18;;;;;;;6.70;1.77;;;;;;;;;;5049306;28;20509;-72
2023/05/30 13:26:44;;;;;;;5.75;1.70;;;;;;;;;;5034176;28;20041;-72
2023/05/30 13:29:10;;;;;;;3.40;1.65;;;;;;;;;;5032810;28;20041;-72
2023/05/30 13:31:36;;;;;;;4.35;2.03;;;;;;;;;;5034144;28;20385;-72
2023/05/30 13:34:03;;;;;;;17.27;3.00;;;;;;;;;;5034378;28;20051;-72
2023/05/30 13:36:29;;;;;;;5.43;1.92;;;;;;;;;;5034372;28;20060;-72
2023/05/30 13:38:56;;;;;;;3.25;1.92;;;;;;;;;;5034083;28;20037;-73
2023/05/30 13:41:22;;;;;;;5.03;1.70;;;;;;;;;;5032624;28;20054;-72
2023/05/30 13:43:48;;;;;;;4.45;1.90;;;;;;;;;;5033198;28;20037;-72
2023/05/30 13:46:15;;;;;;;2.53;1.67;;;;;;;;;;5016369;28;20386;-72
2023/05/30 13:48:41;;;;;;;2.88;1.70;;;;;;;;;;5033786;28;20052;-72
2023/05/30 13:51:07;;;;;;;3.13;1.70;;;;;;;;;;5049515;28;20042;-72
2023/05/30 13:53:33;;;;;;;4.47;1.70;;;;;;;;;;5032570;28;20063;-72
2023/05/30 13:56:00;;;;;;;3.63;1.73;;;;;;;;;;5016592;28;20126;-72
2023/05/30 13:58:26;;;;;;;2.80;1.80;;;;;;;;;;5033893;28;20128;-72
2023/05/30 14:00:52;;;;;;;2.78;1.58;;;;;;;;;;5033558;28;20044;-72
2023/05/30 14:03:18;;;;;;;2.53;1.60;;;;;;;;;;5033184;28;20055;-72
2023/05/30 14:05:44;;;;;;;2.78;1.60;;;;;;;;;;5048855;28;20152;-72
2023/05/30 14:08:10;;;;;;;4.88;1.65;;;;;;;;;;5033454;28;20158;-72
2023/05/30 14:10:36;;;;;;;2.28;1.60;;;;;;;;;;5032155;28;20553;-72
2023/05/30 14:13:03;;;;;;;3.60;1.60;;;;;;;;;;5032244;28;20085;-72
2023/05/30 14:15:30;;;;;;;4.47;1.80;;;;;;;;;;5033459;28;20054;-72
2023/05/30 14:17:57;;;;;;;3.17;1.60;;;;;;;;;;5033033;28;20056;-73
2023/05/30 14:20:23;;;;;;;2.63;1.73;;;;;;;;;;5033552;28;20050;-72
2023/05/30 14:22:49;;;;;;;3.17;1.90;;;;;;;;;;5033223;28;20041;-72
2023/05/30 14:25:15;;;;;;;2.67;1.80;;;;;;;;;;5015700;28;20046;-72
2023/05/30 14:27:42;;;;;;;2.97;1.70;;;;;;;;;;5033064;28;20148;-73
2023/05/30 14:30:12;;;;;;;6.07;1.90;;;;;;;;;;5033087;28;20049;-73
2023/05/30 14:32:39;;;;;;;4.30;1.77;;;;;;;;;;5033005;28;20403;-73
2023/05/30 14:35:05;;;;;;;4.35;2.00;;;;;;;;;;5033097;28;20059;-71
2023/05/30 14:37:31;;;;;;;3.88;1.95;;;;;;;;;;5048362;28;20037;-71
2023/05/30 14:39:59;;;;;;;3.08;1.80;;;;;;;;;;5032789;28;20056;-71